sensor_id;sensor_type;location;lat;lon;timestamp;P1;durP1;ratioP1;P2;durP2;ratioP2
10839;SDS011;5473;42.706;23.328;2022-09-04T00:02:03;0.20;;;0.20;;
10839;SDS011;5473;42.706;23.328;2022-09-04T00:04:40;0.30;;;0.30;;
10839;SDS011;5473;42.706;23.328;2022-09-04T00:07:15;0.20;;;0.20;;
10839;SDS011;5473;42.706;23.328;2022-09-04T00:09:53;0.30;;;0.30;;
10839;SDS011;5473;42.706;23.328;2022-09-04T00:12:34;0.27;;;0.27;;
10839;SDS011;5473;42.706;23.328;2022-09-04T00:15:11;0.30;;;0.30;;
10839;SDS011;5473;42.706;23.328;2022-09-04T00:17:43;0.20;;;0.20;;
10839;SDS011;5473;42.706;23.328;2022-09-04T00:20:19;0.20;;;0.20;;
10839;SDS011;5473;42.706;23.328;2022-09-04T00:22:54;0.20;;;0.20;;
10839;SDS011;5473;42.706;23.328;2022-09-04T00:25:30;0.30;;;0.30;;
10839;SDS011;5473;42.706;23.328;2022-09-04T00:28:02;0.30;;;0.30;;
10839;SDS011;5473;42.706;23.328;2022-09-04T00:30:34;0.20;;;0.20;;
10839;SDS011;5473;42.706;23.328;2022-09-04T00:33:11;0.20;;;0.20;;
10839;SDS011;5473;42.706;23.328;2022-09-04T00:35:45;0.20;;;0.20;;
10839;SDS011;5473;42.706;23.328;2022-09-04T00:38:19;0.20;;;0.20;;
10839;SDS011;5473;42.706;23.328;2022-09-04T00:40:50;0.20;;;0.20;;
10839;SDS011;5473;42.706;23.328;2022-09-04T00:46:38;0.30;;;0.30;;
10839;SDS011;5473;42.706;23.328;2022-09-04T00:49:20;0.20;;;0.20;;
10839;SDS011;5473;42.706;23.328;2022-09-04T00:51:59;0.20;;;0.20;;
10839;SDS011;5473;42.706;23.328;2022-09-04T00:54:40;0.30;;;0.30;;
10839;SDS011;5473;42.706;23.328;2022-09-04T00:57:34;0.30;;;0.30;;
10839;SDS011;5473;42.706;23.328;2022-09-04T01:00:20;0.20;;;0.20;;
10839;SDS011;5473;42.706;23.328;2022-09-04T01:03:06;0.20;;;0.20;;
10839;SDS011;5473;42.706;23.328;2022-09-04T01:05:54;0.20;;;0.20;;
10839;SDS011;5473;42.706;23.328;2022-09-04T01:08:46;0.30;;;0.30;;
10839;SDS011;5473;42.706;23.328;2022-09-04T01:11:39;0.27;;;0.27;;
10839;SDS011;5473;42.706;23.328;2022-09-04T01:14:11;0.30;;;0.30;;
10839;SDS011;5473;42.706;23.328;2022-09-04T01:16:45;0.30;;;0.30;;
10839;SDS011;5473;42.706;23.328;2022-09-04T01:19:22;0.20;;;0.20;;
10839;SDS011;5473;42.706;23.328;2022-09-04T01:22:09;0.30;;;0.30;;
10839;SDS011;5473;42.706;23.328;2022-09-04T01:24:50;0.20;;;0.20;;
10839;SDS011;5473;42.706;23.328;2022-09-04T01:27:27;0.30;;;0.30;;
10839;SDS011;5473;42.706;23.328;2022-09-04T01:30:02;0.20;;;0.20;;
10839;SDS011;5473;42.706;23.328;2022-09-04T01:32:34;0.20;;;0.20;;
10839;SDS011;5473;42.706;23.328;2022-09-04T01:35:11;0.20;;;0.20;;
10839;SDS011;5473;42.706;23.328;2022-09-04T01:37:50;0.20;;;0.20;;
10839;SDS011;5473;42.706;23.328;2022-09-04T01:40:31;0.30;;;0.30;;
10839;SDS011;5473;42.706;23.328;2022-09-04T01:43:04;0.20;;;0.20;;
10839;SDS011;5473;42.706;23.328;2022-09-04T01:45:48;0.30;;;0.30;;
10839;SDS011;5473;42.706;23.328;2022-09-04T01:48:44;0.30;;;0.30;;
10839;SDS011;5473;42.706;23.328;2022-09-04T01:51:22;0.30;;;0.30;;
10839;SDS011;5473;42.706;23.328;2022-09-04T01:53:56;0.30;;;0.30;;
10839;SDS011;5473;42.706;23.328;2022-09-04T01:56:35;0.20;;;0.20;;
10839;SDS011;5473;42.706;23.328;2022-09-04T01:59:08;0.27;;;0.27;;
10839;SDS011;5473;42.706;23.328;2022-09-04T02:01:44;0.20;;;0.20;;
10839;SDS011;5473;42.706;23.328;2022-09-04T02:04:19;0.20;;;0.20;;
10839;SDS011;5473;42.706;23.328;2022-09-04T02:06:53;0.20;;;0.20;;
10839;SDS011;5473;42.706;23.328;2022-09-04T02:09:29;0.20;;;0.20;;
10839;SDS011;5473;42.706;23.328;2022-09-04T02:12:04;0.23;;;0.23;;
10839;SDS011;5473;42.706;23.328;2022-09-04T02:14:39;0.30;;;0.30;;
10839;SDS011;5473;42.706;23.328;2022-09-04T02:17:12;0.20;;;0.20;;
10839;SDS011;5473;42.706;23.328;2022-09-04T02:19:59;0.30;;;0.30;;
10839;SDS011;5473;42.706;23.328;2022-09-04T02:22:35;0.20;;;0.20;;
10839;SDS011;5473;42.706;23.328;2022-09-04T02:25:11;0.20;;;0.20;;
10839;SDS011;5473;42.706;23.328;2022-09-04T02:27:49;0.30;;;0.30;;
10839;SDS011;5473;42.706;23.328;2022-09-04T02:30:23;0.30;;;0.30;;
10839;SDS011;5473;42.706;23.328;2022-09-04T02:32:52;0.20;;;0.20;;
10839;SDS011;5473;42.706;23.328;2022-09-04T02:35:27;0.30;;;0.30;;
10839;SDS011;5473;42.706;23.328;2022-09-04T02:38:01;0.30;;;0.30;;
10839;SDS011;5473;42.706;23.328;2022-09-04T02:40:38;0.20;;;0.20;;
10839;SDS011;5473;42.706;23.328;2022-09-04T02:43:19;0.27;;;0.27;;
10839;SDS011;5473;42.706;23.328;2022-09-04T02:45:57;0.20;;;0.20;;
10839;SDS011;5473;42.706;23.328;2022-09-04T02:48:30;0.30;;;0.30;;
10839;SDS011;5473;42.706;23.328;2022-09-04T02:51:09;0.30;;;0.30;;
10839;SDS011;5473;42.706;23.328;2022-09-04T02:53:50;0.30;;;0.30;;
10839;SDS011;5473;42.706;23.328;2022-09-04T02:56:26;0.30;;;0.30;;
10839;SDS011;5473;42.706;23.328;2022-09-04T02:59:09;0.27;;;0.27;;
10839;SDS011;5473;42.706;23.328;2022-09-04T03:01:48;0.20;;;0.20;;
10839;SDS011;5473;42.706;23.328;2022-09-04T03:04:23;0.20;;;0.20;;
10839;SDS011;5473;42.706;23.328;2022-09-04T03:06:58;0.20;;;0.20;;
10839;SDS011;5473;42.706;23.328;2022-09-04T03:09:35;0.20;;;0.20;;
10839;SDS011;5473;42.706;23.328;2022-09-04T03:12:11;0.20;;;0.20;;
10839;SDS011;5473;42.706;23.328;2022-09-04T03:14:51;0.23;;;0.23;;
10839;SDS011;5473;42.706;23.328;2022-09-04T03:17:26;0.27;;;0.27;;
10839;SDS011;5473;42.706;23.328;2022-09-04T03:20:02;0.20;;;0.20;;
10839;SDS011;5473;42.706;23.328;2022-09-04T03:22:35;0.30;;;0.30;;
10839;SDS011;5473;42.706;23.328;2022-09-04T03:25:25;0.20;;;0.20;;
10839;SDS011;5473;42.706;23.328;2022-09-04T03:28:11;0.23;;;0.23;;
10839;SDS011;5473;42.706;23.328;2022-09-04T03:30:46;0.23;;;0.23;;
10839;SDS011;5473;42.706;23.328;2022-09-04T03:33:16;0.20;;;0.20;;
10839;SDS011;5473;42.706;23.328;2022-09-04T03:35:54;0.20;;;0.20;;
10839;SDS011;5473;42.706;23.328;2022-09-04T03:38:30;0.20;;;0.20;;
10839;SDS011;5473;42.706;23.328;2022-09-04T03:41:05;0.30;;;0.30;;
10839;SDS011;5473;42.706;23.328;2022-09-04T03:43:48;0.20;;;0.20;;
10839;SDS011;5473;42.706;23.328;2022-09-04T03:46:30;0.20;;;0.20;;
10839;SDS011;5473;42.706;23.328;2022-09-04T03:49:13;0.20;;;0.20;;
10839;SDS011;5473;42.706;23.328;2022-09-04T03:51:54;0.33;;;0.33;;
10839;SDS011;5473;42.706;23.328;2022-09-04T03:54:34;0.20;;;0.20;;
10839;SDS011;5473;42.706;23.328;2022-09-04T03:57:14;0.20;;;0.20;;
10839;SDS011;5473;42.706;23.328;2022-09-04T04:00:01;0.20;;;0.20;;
10839;SDS011;5473;42.706;23.328;2022-09-04T04:02:36;0.20;;;0.20;;
10839;SDS011;5473;42.706;23.328;2022-09-04T04:05:27;0.20;;;0.20;;
10839;SDS011;5473;42.706;23.328;2022-09-04T04:08:06;0.30;;;0.30;;
10839;SDS011;5473;42.706;23.328;2022-09-04T04:10:54;0.20;;;0.20;;
10839;SDS011;5473;42.706;23.328;2022-09-04T04:13:35;0.30;;;0.30;;
10839;SDS011;5473;42.706;23.328;2022-09-04T04:16:22;0.10;;;0.10;;
10839;SDS011;5473;42.706;23.328;2022-09-04T04:19:01;0.20;;;0.20;;
10839;SDS011;5473;42.706;23.328;2022-09-04T04:21:52;0.20;;;0.20;;
10839;SDS011;5473;42.706;23.328;2022-09-04T04:24:38;0.20;;;0.20;;
10839;SDS011;5473;42.706;23.328;2022-09-04T04:27:27;0.10;;;0.10;;
10839;SDS011;5473;42.706;23.328;2022-09-04T04:30:06;0.20;;;0.20;;
10839;SDS011;5473;42.706;23.328;2022-09-04T04:32:40;0.20;;;0.20;;
10839;SDS011;5473;42.706;23.328;2022-09-04T04:35:28;0.20;;;0.20;;
10839;SDS011;5473;42.706;23.328;2022-09-04T04:38:07;0.20;;;0.20;;
10839;SDS011;5473;42.706;23.328;2022-09-04T04:40:48;0.20;;;0.20;;
10839;SDS011;5473;42.706;23.328;2022-09-04T04:43:32;0.20;;;0.20;;
10839;SDS011;5473;42.706;23.328;2022-09-04T04:46:08;0.20;;;0.20;;
10839;SDS011;5473;42.706;23.328;2022-09-04T04:54:42;0.20;;;0.20;;
10839;SDS011;5473;42.706;23.328;2022-09-04T04:57:20;0.20;;;0.20;;
10839;SDS011;5473;42.706;23.328;2022-09-04T04:59:56;0.20;;;0.20;;
10839;SDS011;5473;42.706;23.328;2022-09-04T05:02:34;0.20;;;0.20;;
10839;SDS011;5473;42.706;23.328;2022-09-04T05:05:07;0.20;;;0.20;;
10839;SDS011;5473;42.706;23.328;2022-09-04T05:07:41;0.20;;;0.20;;
10839;SDS011;5473;42.706;23.328;2022-09-04T05:10:22;0.20;;;0.20;;
10839;SDS011;5473;42.706;23.328;2022-09-04T05:12:58;0.30;;;0.30;;
10839;SDS011;5473;42.706;23.328;2022-09-04T05:15:36;0.20;;;0.20;;
10839;SDS011;5473;42.706;23.328;2022-09-04T05:18:10;0.20;;;0.20;;
10839;SDS011;5473;42.706;23.328;2022-09-04T05:20:46;0.20;;;0.20;;
10839;SDS011;5473;42.706;23.328;2022-09-04T05:23:21;0.20;;;0.20;;
10839;SDS011;5473;42.706;23.328;2022-09-04T05:26:01;0.30;;;0.30;;
10839;SDS011;5473;42.706;23.328;2022-09-04T05:28:39;0.20;;;0.20;;
10839;SDS011;5473;42.706;23.328;2022-09-04T05:31:16;0.20;;;0.20;;
10839;SDS011;5473;42.706;23.328;2022-09-04T05:33:55;0.20;;;0.20;;
10839;SDS011;5473;42.706;23.328;2022-09-04T05:36:29;0.20;;;0.20;;
10839;SDS011;5473;42.706;23.328;2022-09-04T05:39:07;0.20;;;0.20;;
10839;SDS011;5473;42.706;23.328;2022-09-04T05:41:43;0.20;;;0.20;;
10839;SDS011;5473;42.706;23.328;2022-09-04T05:44:27;0.30;;;0.30;;
10839;SDS011;5473;42.706;23.328;2022-09-04T05:47:07;0.20;;;0.20;;
10839;SDS011;5473;42.706;23.328;2022-09-04T05:49:49;0.20;;;0.20;;
10839;SDS011;5473;42.706;23.328;2022-09-04T05:52:32;0.20;;;0.20;;
10839;SDS011;5473;42.706;23.328;2022-09-04T05:58:24;0.30;;;0.30;;
10839;SDS011;5473;42.706;23.328;2022-09-04T06:01:06;0.20;;;0.20;;
10839;SDS011;5473;42.706;23.328;2022-09-04T06:03:52;0.30;;;0.30;;
10839;SDS011;5473;42.706;23.328;2022-09-04T06:06:35;0.20;;;0.20;;
10839;SDS011;5473;42.706;23.328;2022-09-04T06:09:14;0.30;;;0.30;;
10839;SDS011;5473;42.706;23.328;2022-09-04T06:15:09;0.20;;;0.20;;
10839;SDS011;5473;42.706;23.328;2022-09-04T06:20:48;0.20;;;0.20;;
10839;SDS011;5473;42.706;23.328;2022-09-04T06:23:38;0.20;;;0.20;;
10839;SDS011;5473;42.706;23.328;2022-09-04T06:26:26;0.20;;;0.20;;
10839;SDS011;5473;42.706;23.328;2022-09-04T06:29:24;0.20;;;0.20;;
10839;SDS011;5473;42.706;23.328;2022-09-04T06:32:21;0.20;;;0.20;;
10839;SDS011;5473;42.706;23.328;2022-09-04T06:35:16;0.20;;;0.20;;
10839;SDS011;5473;42.706;23.328;2022-09-04T06:37:55;0.20;;;0.20;;
10839;SDS011;5473;42.706;23.328;2022-09-04T06:40:45;0.20;;;0.20;;
10839;SDS011;5473;42.706;23.328;2022-09-04T06:43:23;0.20;;;0.20;;
10839;SDS011;5473;42.706;23.328;2022-09-04T06:46:00;0.20;;;0.20;;
10839;SDS011;5473;42.706;23.328;2022-09-04T06:48:43;0.20;;;0.20;;
10839;SDS011;5473;42.706;23.328;2022-09-04T06:51:21;0.20;;;0.20;;
10839;SDS011;5473;42.706;23.328;2022-09-04T06:54:03;0.20;;;0.20;;
10839;SDS011;5473;42.706;23.328;2022-09-04T06:56:44;0.10;;;0.10;;
10839;SDS011;5473;42.706;23.328;2022-09-04T06:59:33;0.10;;;0.10;;
10839;SDS011;5473;42.706;23.328;2022-09-04T07:02:16;0.10;;;0.10;;
10839;SDS011;5473;42.706;23.328;2022-09-04T07:04:57;0.10;;;0.10;;
10839;SDS011;5473;42.706;23.328;2022-09-04T07:07:35;0.10;;;0.10;;
10839;SDS011;5473;42.706;23.328;2022-09-04T07:10:10;0.10;;;0.10;;
10839;SDS011;5473;42.706;23.328;2022-09-04T07:16:04;0.10;;;0.10;;
10839;SDS011;5473;42.706;23.328;2022-09-04T07:18:47;0.10;;;0.10;;
10839;SDS011;5473;42.706;23.328;2022-09-04T07:21:28;0.10;;;0.10;;
10839;SDS011;5473;42.706;23.328;2022-09-04T07:24:05;0.00;;;0.00;;
10839;SDS011;5473;42.706;23.328;2022-09-04T07:26:43;0.00;;;0.00;;
10839;SDS011;5473;42.706;23.328;2022-09-04T07:29:23;0.00;;;0.00;;
10839;SDS011;5473;42.706;23.328;2022-09-04T07:32:00;0.00;;;0.00;;
10839;SDS011;5473;42.706;23.328;2022-09-04T07:34:36;0.00;;;0.00;;
10839;SDS011;5473;42.706;23.328;2022-09-04T07:37:12;0.10;;;0.10;;
10839;SDS011;5473;42.706;23.328;2022-09-04T07:39:54;0.00;;;0.00;;
10839;SDS011;5473;42.706;23.328;2022-09-04T07:42:29;0.00;;;0.00;;
10839;SDS011;5473;42.706;23.328;2022-09-04T07:45:01;0.10;;;0.10;;
10839;SDS011;5473;42.706;23.328;2022-09-04T07:47:32;0.10;;;0.10;;
10839;SDS011;5473;42.706;23.328;2022-09-04T07:50:07;0.10;;;0.10;;
10839;SDS011;5473;42.706;23.328;2022-09-04T07:52:51;0.10;;;0.10;;
10839;SDS011;5473;42.706;23.328;2022-09-04T07:55:34;0.00;;;0.00;;
10839;SDS011;5473;42.706;23.328;2022-09-04T08:04:11;0.00;;;0.00;;
10839;SDS011;5473;42.706;23.328;2022-09-04T08:06:57;0.00;;;0.00;;
10839;SDS011;5473;42.706;23.328;2022-09-04T08:12:35;0.10;;;0.10;;
10839;SDS011;5473;42.706;23.328;2022-09-04T08:15:26;0.10;;;0.10;;
10839;SDS011;5473;42.706;23.328;2022-09-04T08:18:07;0.00;;;0.00;;
10839;SDS011;5473;42.706;23.328;2022-09-04T08:20:44;0.00;;;0.00;;
10839;SDS011;5473;42.706;23.328;2022-09-04T08:23:23;0.00;;;0.00;;
10839;SDS011;5473;42.706;23.328;2022-09-04T08:26:10;0.00;;;0.00;;
10839;SDS011;5473;42.706;23.328;2022-09-04T08:28:55;0.00;;;0.00;;
10839;SDS011;5473;42.706;23.328;2022-09-04T08:31:34;0.00;;;0.00;;
10839;SDS011;5473;42.706;23.328;2022-09-04T08:34:22;0.05;;;0.05;;
10839;SDS011;5473;42.706;23.328;2022-09-04T08:37:18;0.00;;;0.00;;
10839;SDS011;5473;42.706;23.328;2022-09-04T08:39:53;0.00;;;0.00;;
10839;SDS011;5473;42.706;23.328;2022-09-04T08:45:58;0.00;;;0.00;;
10839;SDS011;5473;42.706;23.328;2022-09-04T08:52:09;0.00;;;0.00;;
10839;SDS011;5473;42.706;23.328;2022-09-04T08:55:04;0.00;;;0.00;;
10839;SDS011;5473;42.706;23.328;2022-09-04T08:58:02;0.00;;;0.00;;
10839;SDS011;5473;42.706;23.328;2022-09-04T09:01:04;0.00;;;0.00;;
10839;SDS011;5473;42.706;23.328;2022-09-04T09:04:03;0.00;;;0.00;;
10839;SDS011;5473;42.706;23.328;2022-09-04T09:07:00;0.00;;;0.00;;
10839;SDS011;5473;42.706;23.328;2022-09-04T09:09:54;0.00;;;0.00;;
10839;SDS011;5473;42.706;23.328;2022-09-04T09:12:55;0.00;;;0.00;;
10839;SDS011;5473;42.706;23.328;2022-09-04T09:15:51;0.08;;;0.08;;
10839;SDS011;5473;42.706;23.328;2022-09-04T09:18:34;0.00;;;0.00;;
10839;SDS011;5473;42.706;23.328;2022-09-04T09:21:06;0.00;;;0.00;;
10839;SDS011;5473;42.706;23.328;2022-09-04T09:23:38;0.00;;;0.00;;
10839;SDS011;5473;42.706;23.328;2022-09-04T09:26:22;0.00;;;0.00;;
10839;SDS011;5473;42.706;23.328;2022-09-04T09:29:08;0.00;;;0.00;;
10839;SDS011;5473;42.706;23.328;2022-09-04T09:38:34;0.00;;;0.00;;
10839;SDS011;5473;42.706;23.328;2022-09-04T09:41:31;0.00;;;0.00;;
10839;SDS011;5473;42.706;23.328;2022-09-04T09:47:40;0.00;;;0.00;;
10839;SDS011;5473;42.706;23.328;2022-09-04T09:53:40;0.00;;;0.00;;
10839;SDS011;5473;42.706;23.328;2022-09-04T09:56:40;0.00;;;0.00;;
10839;SDS011;5473;42.706;23.328;2022-09-04T09:59:33;0.00;;;0.00;;
10839;SDS011;5473;42.706;23.328;2022-09-04T10:02:20;0.00;;;0.00;;
10839;SDS011;5473;42.706;23.328;2022-09-04T10:05:13;0.00;;;0.00;;
10839;SDS011;5473;42.706;23.328;2022-09-04T10:08:20;0.00;;;0.00;;
10839;SDS011;5473;42.706;23.328;2022-09-04T10:11:10;0.00;;;0.00;;
10839;SDS011;5473;42.706;23.328;2022-09-04T10:17:06;0.00;;;0.00;;
10839;SDS011;5473;42.706;23.328;2022-09-04T10:20:11;0.00;;;0.00;;
10839;SDS011;5473;42.706;23.328;2022-09-04T10:26:34;0.00;;;0.00;;
10839;SDS011;5473;42.706;23.328;2022-09-04T10:29:31;0.00;;;0.00;;
10839;SDS011;5473;42.706;23.328;2022-09-04T10:32:19;0.00;;;0.00;;
10839;SDS011;5473;42.706;23.328;2022-09-04T10:35:07;0.00;;;0.00;;
10839;SDS011;5473;42.706;23.328;2022-09-04T10:37:52;0.00;;;0.00;;
10839;SDS011;5473;42.706;23.328;2022-09-04T10:40:31;0.00;;;0.00;;
10839;SDS011;5473;42.706;23.328;2022-09-04T10:43:30;0.00;;;0.00;;
10839;SDS011;5473;42.706;23.328;2022-09-04T10:46:21;0.00;;;0.00;;
10839;SDS011;5473;42.706;23.328;2022-09-04T10:48:59;0.00;;;0.00;;
10839;SDS011;5473;42.706;23.328;2022-09-04T10:51:54;0.00;;;0.00;;
10839;SDS011;5473;42.706;23.328;2022-09-04T10:57:57;0.00;;;0.00;;
10839;SDS011;5473;42.706;23.328;2022-09-04T11:00:43;0.00;;;0.00;;
10839;SDS011;5473;42.706;23.328;2022-09-04T11:03:30;0.00;;;0.00;;
10839;SDS011;5473;42.706;23.328;2022-09-04T11:09:23;0.00;;;0.00;;
10839;SDS011;5473;42.706;23.328;2022-09-04T11:12:13;0.00;;;0.00;;
10839;SDS011;5473;42.706;23.328;2022-09-04T11:15:06;0.00;;;0.00;;
10839;SDS011;5473;42.706;23.328;2022-09-04T11:17:54;0.00;;;0.00;;
10839;SDS011;5473;42.706;23.328;2022-09-04T11:30:14;0.00;;;0.00;;
10839;SDS011;5473;42.706;23.328;2022-09-04T11:36:00;0.00;;;0.00;;
10839;SDS011;5473;42.706;23.328;2022-09-04T11:45:04;0.10;;;0.10;;
10839;SDS011;5473;42.706;23.328;2022-09-04T11:51:10;0.00;;;0.00;;
10839;SDS011;5473;42.706;23.328;2022-09-04T11:54:17;0.00;;;0.00;;
10839;SDS011;5473;42.706;23.328;2022-09-04T11:57:13;0.00;;;0.00;;
10839;SDS011;5473;42.706;23.328;2022-09-04T12:00:01;0.00;;;0.00;;
10839;SDS011;5473;42.706;23.328;2022-09-04T12:08:44;0.00;;;0.00;;
10839;SDS011;5473;42.706;23.328;2022-09-04T12:14:36;0.08;;;0.08;;
10839;SDS011;5473;42.706;23.328;2022-09-04T12:17:27;0.00;;;0.00;;
10839;SDS011;5473;42.706;23.328;2022-09-04T12:20:35;0.00;;;0.00;;
10839;SDS011;5473;42.706;23.328;2022-09-04T12:26:41;0.00;;;0.00;;
10839;SDS011;5473;42.706;23.328;2022-09-04T12:29:36;0.00;;;0.00;;
10839;SDS011;5473;42.706;23.328;2022-09-04T12:32:28;0.00;;;0.00;;
10839;SDS011;5473;42.706;23.328;2022-09-04T12:35:27;0.00;;;0.00;;
10839;SDS011;5473;42.706;23.328;2022-09-04T12:38:37;0.00;;;0.00;;
10839;SDS011;5473;42.706;23.328;2022-09-04T12:41:30;0.00;;;0.00;;
10839;SDS011;5473;42.706;23.328;2022-09-04T12:44:04;0.00;;;0.00;;
10839;SDS011;5473;42.706;23.328;2022-09-04T12:46:47;0.00;;;0.00;;
10839;SDS011;5473;42.706;23.328;2022-09-04T12:49:38;0.00;;;0.00;;
10839;SDS011;5473;42.706;23.328;2022-09-04T12:52:25;0.00;;;0.00;;
10839;SDS011;5473;42.706;23.328;2022-09-04T12:55:06;0.00;;;0.00;;
10839;SDS011;5473;42.706;23.328;2022-09-04T12:57:43;0.00;;;0.00;;
10839;SDS011;5473;42.706;23.328;2022-09-04T13:00:21;0.00;;;0.00;;
10839;SDS011;5473;42.706;23.328;2022-09-04T13:02:53;0.00;;;0.00;;
10839;SDS011;5473;42.706;23.328;2022-09-04T13:05:41;0.00;;;0.00;;
10839;SDS011;5473;42.706;23.328;2022-09-04T13:08:20;0.00;;;0.00;;
10839;SDS011;5473;42.706;23.328;2022-09-04T13:11:02;0.00;;;0.00;;
10839;SDS011;5473;42.706;23.328;2022-09-04T13:13:45;0.00;;;0.00;;
10839;SDS011;5473;42.706;23.328;2022-09-04T13:16:23;0.00;;;0.00;;
10839;SDS011;5473;42.706;23.328;2022-09-04T13:19:00;0.00;;;0.00;;
10839;SDS011;5473;42.706;23.328;2022-09-04T13:24:31;0.00;;;0.00;;
10839;SDS011;5473;42.706;23.328;2022-09-04T13:27:10;0.00;;;0.00;;
10839;SDS011;5473;42.706;23.328;2022-09-04T13:29:53;0.00;;;0.00;;
10839;SDS011;5473;42.706;23.328;2022-09-04T13:35:42;0.10;;;0.10;;
10839;SDS011;5473;42.706;23.328;2022-09-04T13:38:42;0.10;;;0.10;;
10839;SDS011;5473;42.706;23.328;2022-09-04T13:41:38;0.10;;;0.10;;
10839;SDS011;5473;42.706;23.328;2022-09-04T13:44:29;0.00;;;0.00;;
10839;SDS011;5473;42.706;23.328;2022-09-04T13:47:18;0.10;;;0.10;;
10839;SDS011;5473;42.706;23.328;2022-09-04T13:49:47;0.00;;;0.00;;
10839;SDS011;5473;42.706;23.328;2022-09-04T13:52:20;0.00;;;0.00;;
10839;SDS011;5473;42.706;23.328;2022-09-04T13:54:53;0.07;;;0.07;;
10839;SDS011;5473;42.706;23.328;2022-09-04T13:57:27;0.10;;;0.10;;
10839;SDS011;5473;42.706;23.328;2022-09-04T13:59:58;0.10;;;0.10;;
10839;SDS011;5473;42.706;23.328;2022-09-04T14:02:32;0.00;;;0.00;;
10839;SDS011;5473;42.706;23.328;2022-09-04T14:05:05;0.07;;;0.07;;
10839;SDS011;5473;42.706;23.328;2022-09-04T14:07:39;0.10;;;0.10;;
10839;SDS011;5473;42.706;23.328;2022-09-04T14:10:09;0.10;;;0.10;;
10839;SDS011;5473;42.706;23.328;2022-09-04T14:12:41;0.10;;;0.10;;
10839;SDS011;5473;42.706;23.328;2022-09-04T14:15:31;0.10;;;0.10;;
10839;SDS011;5473;42.706;23.328;2022-09-04T14:18:11;0.07;;;0.07;;
10839;SDS011;5473;42.706;23.328;2022-09-04T14:20:50;0.10;;;0.10;;
10839;SDS011;5473;42.706;23.328;2022-09-04T14:23:24;0.10;;;0.10;;
10839;SDS011;5473;42.706;23.328;2022-09-04T14:26:02;0.10;;;0.10;;
10839;SDS011;5473;42.706;23.328;2022-09-04T14:28:38;0.10;;;0.10;;
10839;SDS011;5473;42.706;23.328;2022-09-04T14:31:12;0.10;;;0.10;;
10839;SDS011;5473;42.706;23.328;2022-09-04T14:33:47;0.10;;;0.10;;
10839;SDS011;5473;42.706;23.328;2022-09-04T14:36:24;0.10;;;0.10;;
10839;SDS011;5473;42.706;23.328;2022-09-04T14:39:12;0.10;;;0.10;;
10839;SDS011;5473;42.706;23.328;2022-09-04T14:41:49;0.10;;;0.10;;
10839;SDS011;5473;42.706;23.328;2022-09-04T14:44:30;0.10;;;0.10;;
10839;SDS011;5473;42.706;23.328;2022-09-04T14:47:10;0.10;;;0.10;;
10839;SDS011;5473;42.706;23.328;2022-09-04T14:49:45;0.10;;;0.10;;
10839;SDS011;5473;42.706;23.328;2022-09-04T14:52:16;0.10;;;0.10;;
10839;SDS011;5473;42.706;23.328;2022-09-04T14:54:49;0.10;;;0.10;;
10839;SDS011;5473;42.706;23.328;2022-09-04T14:57:20;0.03;;;0.03;;
10839;SDS011;5473;42.706;23.328;2022-09-04T14:59:56;0.10;;;0.10;;
10839;SDS011;5473;42.706;23.328;2022-09-04T15:02:31;0.10;;;0.10;;
10839;SDS011;5473;42.706;23.328;2022-09-04T15:05:03;0.10;;;0.10;;
10839;SDS011;5473;42.706;23.328;2022-09-04T15:10:28;0.10;;;0.10;;
10839;SDS011;5473;42.706;23.328;2022-09-04T15:15:58;0.10;;;0.10;;
10839;SDS011;5473;42.706;23.328;2022-09-04T15:18:40;0.10;;;0.10;;
10839;SDS011;5473;42.706;23.328;2022-09-04T15:21:18;0.10;;;0.10;;
10839;SDS011;5473;42.706;23.328;2022-09-04T15:23:59;0.10;;;0.10;;
10839;SDS011;5473;42.706;23.328;2022-09-04T15:26:42;0.10;;;0.10;;
10839;SDS011;5473;42.706;23.328;2022-09-04T15:29:16;0.10;;;0.10;;
10839;SDS011;5473;42.706;23.328;2022-09-04T15:31:57;0.10;;;0.10;;
10839;SDS011;5473;42.706;23.328;2022-09-04T15:34:25;0.10;;;0.10;;
10839;SDS011;5473;42.706;23.328;2022-09-04T15:36:52;0.10;;;0.10;;
10839;SDS011;5473;42.706;23.328;2022-09-04T15:39:23;0.10;;;0.10;;
10839;SDS011;5473;42.706;23.328;2022-09-04T15:41:59;0.10;;;0.10;;
10839;SDS011;5473;42.706;23.328;2022-09-04T15:44:27;0.10;;;0.10;;
10839;SDS011;5473;42.706;23.328;2022-09-04T15:46:59;0.10;;;0.10;;
10839;SDS011;5473;42.706;23.328;2022-09-04T15:49:41;0.10;;;0.10;;
10839;SDS011;5473;42.706;23.328;2022-09-04T15:52:21;0.10;;;0.10;;
10839;SDS011;5473;42.706;23.328;2022-09-04T15:55:03;0.10;;;0.10;;
10839;SDS011;5473;42.706;23.328;2022-09-04T15:57:41;0.10;;;0.10;;
10839;SDS011;5473;42.706;23.328;2022-09-04T16:00:20;0.10;;;0.10;;
10839;SDS011;5473;42.706;23.328;2022-09-04T16:02:52;0.10;;;0.10;;
10839;SDS011;5473;42.706;23.328;2022-09-04T16:05:31;0.10;;;0.10;;
10839;SDS011;5473;42.706;23.328;2022-09-04T16:08:11;0.10;;;0.10;;
10839;SDS011;5473;42.706;23.328;2022-09-04T16:10:49;0.10;;;0.10;;
10839;SDS011;5473;42.706;23.328;2022-09-04T16:16:18;0.10;;;0.10;;
10839;SDS011;5473;42.706;23.328;2022-09-04T16:21:39;0.10;;;0.10;;
10839;SDS011;5473;42.706;23.328;2022-09-04T16:24:14;0.10;;;0.10;;
10839;SDS011;5473;42.706;23.328;2022-09-04T16:26:45;0.17;;;0.17;;
10839;SDS011;5473;42.706;23.328;2022-09-04T16:29:18;0.10;;;0.10;;
10839;SDS011;5473;42.706;23.328;2022-09-04T16:31:53;0.10;;;0.10;;
10839;SDS011;5473;42.706;23.328;2022-09-04T16:34:23;0.10;;;0.10;;
10839;SDS011;5473;42.706;23.328;2022-09-04T16:36:54;0.10;;;0.10;;
10839;SDS011;5473;42.706;23.328;2022-09-04T16:39:40;0.10;;;0.10;;
10839;SDS011;5473;42.706;23.328;2022-09-04T16:42:16;0.10;;;0.10;;
10839;SDS011;5473;42.706;23.328;2022-09-04T16:44:50;0.20;;;0.20;;
10839;SDS011;5473;42.706;23.328;2022-09-04T16:47:25;0.10;;;0.10;;
10839;SDS011;5473;42.706;23.328;2022-09-04T16:50:01;0.20;;;0.20;;
10839;SDS011;5473;42.706;23.328;2022-09-04T16:55:25;0.20;;;0.20;;
10839;SDS011;5473;42.706;23.328;2022-09-04T16:58:03;0.17;;;0.17;;
10839;SDS011;5473;42.706;23.328;2022-09-04T17:00:58;0.20;;;0.20;;
10839;SDS011;5473;42.706;23.328;2022-09-04T17:03:37;0.10;;;0.10;;
10839;SDS011;5473;42.706;23.328;2022-09-04T17:06:11;0.20;;;0.20;;
10839;SDS011;5473;42.706;23.328;2022-09-04T17:08:46;0.13;;;0.13;;
10839;SDS011;5473;42.706;23.328;2022-09-04T17:11:19;0.10;;;0.10;;
10839;SDS011;5473;42.706;23.328;2022-09-04T17:13:55;0.13;;;0.13;;
10839;SDS011;5473;42.706;23.328;2022-09-04T17:16:46;0.10;;;0.10;;
10839;SDS011;5473;42.706;23.328;2022-09-04T17:19:16;0.13;;;0.13;;
10839;SDS011;5473;42.706;23.328;2022-09-04T17:21:54;0.20;;;0.20;;
10839;SDS011;5473;42.706;23.328;2022-09-04T17:24:54;0.20;;;0.20;;
10839;SDS011;5473;42.706;23.328;2022-09-04T17:27:29;0.20;;;0.20;;
10839;SDS011;5473;42.706;23.328;2022-09-04T17:30:05;0.20;;;0.20;;
10839;SDS011;5473;42.706;23.328;2022-09-04T17:32:37;0.20;;;0.20;;
10839;SDS011;5473;42.706;23.328;2022-09-04T17:35:13;0.20;;;0.20;;
10839;SDS011;5473;42.706;23.328;2022-09-04T17:37:45;0.20;;;0.20;;
10839;SDS011;5473;42.706;23.328;2022-09-04T17:40:17;0.20;;;0.20;;
10839;SDS011;5473;42.706;23.328;2022-09-04T17:42:53;0.20;;;0.20;;
10839;SDS011;5473;42.706;23.328;2022-09-04T17:45:34;0.10;;;0.10;;
10839;SDS011;5473;42.706;23.328;2022-09-04T17:48:17;0.20;;;0.20;;
10839;SDS011;5473;42.706;23.328;2022-09-04T17:50:48;0.20;;;0.20;;
10839;SDS011;5473;42.706;23.328;2022-09-04T17:53:22;0.20;;;0.20;;
10839;SDS011;5473;42.706;23.328;2022-09-04T17:55:52;0.10;;;0.10;;
10839;SDS011;5473;42.706;23.328;2022-09-04T17:58:26;0.20;;;0.20;;
10839;SDS011;5473;42.706;23.328;2022-09-04T18:00:58;0.10;;;0.10;;
10839;SDS011;5473;42.706;23.328;2022-09-04T18:03:36;0.20;;;0.20;;
10839;SDS011;5473;42.706;23.328;2022-09-04T18:06:10;0.20;;;0.20;;
10839;SDS011;5473;42.706;23.328;2022-09-04T18:08:41;0.10;;;0.10;;